Time;durP1;ratioP1;P1;durP2;ratioP2;P2;SDS_P1;SDS_P2;PMS_P1;PMS_P2;Temp;Humidity;BMP_temperature;BMP_pressure;BME280_temperature;BME280_humidity;BME280_pressure;Samples;Min_cycle;Max_cycle;Signal;HPM_P1;HPM_P2
2021/06/11 00:00:46;;;;;;;4.57;1.90;;;24.40;51.40;;;;;;5033388;28;20025;-66
2021/06/11 00:03:11;;;;;;;4.68;1.77;;;24.40;51.40;;;;;;5033331;28;20029;-66
2021/06/11 00:05:37;;;;;;;3.50;1.67;;;24.40;51.50;;;;;;5033348;28;20174;-67
2021/06/11 00:08:03;;;;;;;3.90;1.85;;;24.40;51.50;;;;;;5033664;28;20025;-66
2021/06/11 00:10:29;;;;;;;2.70;1.50;;;24.40;51.50;;;;;;5038534;28;20025;-66
2021/06/11 00:12:55;;;;;;;3.47;1.95;;;24.40;51.50;;;;;;5033630;28;20477;-67
2021/06/11 00:15:21;;;;;;;4.05;2.10;;;24.40;51.50;;;;;;5032150;28;20021;-66
2021/06/11 00:17:47;;;;;;;3.50;1.80;;;24.30;51.50;;;;;;5033227;28;20491;-66
2021/06/11 00:20:12;;;;;;;3.15;1.77;;;24.30;51.50;;;;;;5033500;28;20435;-66
2021/06/11 00:22:38;;;;;;;4.75;1.80;;;24.30;51.50;;;;;;5033161;28;20029;-66
2021/06/11 00:25:12;;;;;;;5.00;2.33;;;24.30;51.50;;;;;;5032698;28;20535;-66
2021/06/11 00:27:37;;;;;;;3.75;1.80;;;24.30;51.60;;;;;;5033187;28;20087;-66
2021/06/11 00:30:05;;;;;;;3.67;1.90;;;24.30;51.50;;;;;;5033098;28;20033;-66
2021/06/11 00:32:31;;;;;;;3.85;1.65;;;24.20;51.60;;;;;;5032889;28;20508;-66
2021/06/11 00:34:56;;;;;;;5.20;1.80;;;24.20;51.60;;;;;;5033253;28;20030;-66
2021/06/11 00:37:22;;;;;;;4.38;2.10;;;24.20;51.60;;;;;;5032906;28;20090;-66
2021/06/11 00:39:47;;;;;;;3.67;2.03;;;24.20;51.60;;;;;;5032750;28;20029;-68
2021/06/11 00:42:13;;;;;;;3.83;1.88;;;24.20;51.60;;;;;;5032885;28;20219;-67
2021/06/11 00:44:38;;;;;;;2.75;1.52;;;24.20;51.60;;;;;;5032740;28;20489;-67
2021/06/11 00:47:04;;;;;;;4.53;1.83;;;24.20;51.60;;;;;;5032863;28;20037;-66
2021/06/11 00:49:29;;;;;;;4.35;2.10;;;24.20;51.60;;;;;;5032770;28;20076;-68
2021/06/11 00:51:55;;;;;;;2.47;1.50;;;24.20;51.70;;;;;;5031502;28;20025;-67
2021/06/11 00:54:21;;;;;;;3.53;1.80;;;24.20;51.70;;;;;;5032723;28;20028;-67
2021/06/11 00:56:47;;;;;;;2.95;1.55;;;24.20;51.70;;;;;;5031368;28;20432;-66
2021/06/11 00:59:13;;;;;;;3.40;2.03;;;24.20;51.70;;;;;;5032827;28;20028;-67
2021/06/11 01:01:41;;;;;;;3.05;1.73;;;24.10;51.70;;;;;;5032390;28;20461;-67
2021/06/11 01:04:07;;;;;;;2.35;1.63;;;24.20;51.70;;;;;;5032692;28;20385;-67
2021/06/11 01:06:35;;;;;;;5.50;2.20;;;24.10;51.70;;;;;;5032546;28;20470;-67
2021/06/11 01:09:00;;;;;;;3.50;1.83;;;24.10;51.80;;;;;;5032533;28;20460;-68
2021/06/11 01:11:27;;;;;;;4.45;1.90;;;24.10;51.80;;;;;;5032655;28;20074;-68
2021/06/11 01:13:52;;;;;;;5.18;1.92;;;24.10;51.80;;;;;;5031413;28;20025;-68
2021/06/11 01:16:18;;;;;;;5.60;1.90;;;24.10;51.80;;;;;;5032573;28;20090;-69
2021/06/11 01:18:44;;;;;;;4.10;1.90;;;24.10;51.80;;;;;;5032730;28;20032;-68
2021/06/11 01:21:11;;;;;;;4.35;2.15;;;24.10;51.80;;;;;;5032659;28;20022;-68
2021/06/11 01:23:59;;;;;;;3.10;1.70;;;24.00;51.80;;;;;;5032619;28;20115;-68
2021/06/11 01:26:38;;;;;;;2.75;1.80;;;24.00;51.90;;;;;;5032448;28;20037;-68
2021/06/11 01:29:11;;;;;;;4.65;2.13;;;24.00;51.90;;;;;;5032478;28;20491;-68
2021/06/11 01:31:40;;;;;;;5.38;2.00;;;24.00;51.90;;;;;;5032695;28;20390;-68
2021/06/11 01:34:29;;;;;;;3.45;1.90;;;24.00;51.90;;;;;;5032446;28;20432;-68
2021/06/11 01:37:01;;;;;;;4.85;2.00;;;24.00;52.00;;;;;;5034174;28;20120;-68
2021/06/11 01:39:28;;;;;;;4.72;2.15;;;24.00;52.00;;;;;;5036159;28;20068;-69
2021/06/11 01:41:56;;;;;;;2.92;1.63;;;24.00;52.00;;;;;;5036155;28;20037;-68
2021/06/11 01:44:23;;;;;;;5.35;1.95;;;24.00;52.00;;;;;;5035849;28;20048;-68
2021/06/11 01:46:53;;;;;;;3.13;1.90;;;23.90;52.00;;;;;;5035945;28;20034;-69
2021/06/11 01:49:20;;;;;;;5.35;2.03;;;24.00;52.10;;;;;;5034948;28;20029;-68
2021/06/11 01:51:46;;;;;;;4.47;2.10;;;23.90;52.10;;;;;;5035908;28;20026;-68
2021/06/11 01:54:13;;;;;;;3.78;2.25;;;23.90;52.10;;;;;;5039419;28;20104;-68
2021/06/11 01:56:41;;;;;;;4.95;2.00;;;23.90;52.10;;;;;;5039783;28;20025;-68
2021/06/11 01:59:07;;;;;;;4.20;1.88;;;23.90;52.20;;;;;;5036587;28;20029;-68
2021/06/11 02:01:34;;;;;;;3.65;2.15;;;23.90;52.10;;;;;;5036286;28;20049;-68
2021/06/11 02:04:01;;;;;;;4.57;2.50;;;23.90;52.20;;;;;;5035947;28;20018;-68
2021/06/11 02:06:27;;;;;;;4.82;2.33;;;23.90;52.20;;;;;;5037583;28;20099;-68
2021/06/11 02:08:53;;;;;;;3.58;2.10;;;23.90;52.20;;;;;;5044530;28;20037;-68
2021/06/11 02:11:20;;;;;;;3.22;1.77;;;23.80;52.20;;;;;;5041023;28;20029;-69
2021/06/11 02:13:48;;;;;;;3.65;2.15;;;23.80;52.30;;;;;;5036725;28;20481;-69
2021/06/11 02:16:15;;;;;;;4.65;2.08;;;23.80;52.30;;;;;;5036083;28;20033;-69
2021/06/11 02:18:42;;;;;;;4.07;2.10;;;23.80;52.30;;;;;;5035346;28;20485;-68
2021/06/11 02:21:08;;;;;;;3.95;2.33;;;23.80;52.30;;;;;;5035386;28;20087;-68
2021/06/11 02:23:35;;;;;;;3.67;2.03;;;23.80;52.30;;;;;;5035472;28;20029;-68
2021/06/11 02:26:02;;;;;;;4.88;2.33;;;23.80;52.40;;;;;;5035103;28;20485;-68
2021/06/11 02:28:28;;;;;;;4.63;2.10;;;23.80;52.40;;;;;;5035214;28;20029;-68
2021/06/11 02:30:53;;;;;;;5.30;2.22;;;23.80;52.40;;;;;;5035144;28;20041;-68
2021/06/11 02:33:19;;;;;;;4.13;2.10;;;23.70;52.40;;;;;;5034876;28;20116;-68
2021/06/11 02:35:45;;;;;;;4.05;2.25;;;23.80;52.40;;;;;;5034875;28;20053;-68
2021/06/11 02:38:11;;;;;;;3.92;2.33;;;23.80;52.40;;;;;;5034907;28;20104;-68
2021/06/11 02:40:36;;;;;;;4.30;2.30;;;23.80;52.50;;;;;;5034922;28;20105;-68
2021/06/11 02:43:07;;;;;;;4.40;2.20;;;23.70;52.50;;;;;;5034731;28;20034;-68
2021/06/11 02:45:37;;;;;;;4.18;2.25;;;23.70;52.50;;;;;;5034780;28;20492;-69
2021/06/11 02:48:21;;;;;;;3.75;1.92;;;23.70;52.50;;;;;;5034450;28;20373;-69
2021/06/11 02:50:58;;;;;;;3.58;1.92;;;23.70;52.50;;;;;;5034798;28;20018;-68
2021/06/11 02:53:26;;;;;;;4.18;2.03;;;23.70;52.60;;;;;;5034913;28;20033;-69
2021/06/11 02:55:58;;;;;;;3.47;2.00;;;23.70;52.60;;;;;;5034673;28;20096;-69
2021/06/11 02:58:27;;;;;;;3.50;2.08;;;23.70;52.60;;;;;;5034496;28;20037;-68
2021/06/11 03:00:54;;;;;;;4.95;2.58;;;23.70;52.60;;;;;;5034652;28;20025;-68
2021/06/11 03:03:39;;;;;;;4.10;2.17;;;23.70;52.60;;;;;;5034445;28;20029;-68
2021/06/11 03:06:06;;;;;;;4.38;1.98;;;23.60;52.70;;;;;;5033200;28;20091;-69
2021/06/11 03:08:35;;;;;;;3.42;1.85;;;23.70;52.70;;;;;;5034305;28;20056;-68
2021/06/11 03:11:07;;;;;;;4.93;2.42;;;23.60;52.70;;;;;;5034293;28;20029;-69
2021/06/11 03:13:33;;;;;;;4.90;2.35;;;23.70;52.80;;;;;;5034246;28;20362;-68
2021/06/11 03:16:00;;;;;;;4.45;2.45;;;23.70;52.90;;;;;;5034620;28;20112;-69
2021/06/11 03:18:52;;;;;;;4.13;2.10;;;23.60;52.80;;;;;;5034231;28;20022;-68
2021/06/11 03:21:24;;;;;;;5.38;2.72;;;23.60;52.80;;;;;;5034280;28;20426;-68
2021/06/11 03:23:58;;;;;;;5.95;2.60;;;23.60;52.90;;;;;;5034073;28;20100;-68
2021/06/11 03:26:28;;;;;;;4.55;2.25;;;23.60;52.90;;;;;;5034024;28;20037;-68
2021/06/11 03:28:56;;;;;;;4.15;2.40;;;23.50;52.90;;;;;;5034109;28;20546;-68
2021/06/11 03:31:29;;;;;;;3.83;2.05;;;23.50;53.00;;;;;;5034441;28;20053;-68
2021/06/11 03:34:01;;;;;;;4.32;2.47;;;23.50;53.10;;;;;;5033986;28;20061;-68
2021/06/11 03:36:36;;;;;;;5.60;2.70;;;23.50;53.00;;;;;;5034164;28;20037;-68
2021/06/11 03:39:06;;;;;;;4.53;2.63;;;23.50;53.10;;;;;;5040079;28;20044;-68
2021/06/11 03:41:34;;;;;;;4.18;2.15;;;23.50;53.10;;;;;;5041419;28;20049;-69
2021/06/11 03:44:02;;;;;;;4.38;2.53;;;23.50;53.10;;;;;;5036249;28;20049;-68
2021/06/11 03:46:31;;;;;;;5.22;2.97;;;23.50;53.20;;;;;;5034499;28;20049;-68
2021/06/11 03:48:58;;;;;;;4.90;2.60;;;23.50;53.10;;;;;;5034174;28;20539;-68
2021/06/11 03:51:28;;;;;;;3.78;1.98;;;23.50;53.10;;;;;;5033994;28;20040;-68
2021/06/11 03:53:56;;;;;;;4.80;2.50;;;23.50;53.20;;;;;;5034091;28;20030;-69
2021/06/11 03:56:24;;;;;;;4.20;2.25;;;23.50;53.30;;;;;;5034042;28;20025;-69
2021/06/11 03:58:51;;;;;;;4.13;2.40;;;23.50;53.20;;;;;;5033597;28;20022;-69
2021/06/11 04:01:24;;;;;;;4.57;2.50;;;23.50;53.20;;;;;;5036842;28;20072;-71
2021/06/11 04:03:50;;;;;;;5.13;2.60;;;23.50;53.20;;;;;;5044505;28;20073;-71
2021/06/11 04:06:35;;;;;;;4.95;1.98;;;23.50;53.30;;;;;;5044982;28;20064;-70
2021/06/11 04:09:06;;;;;;;3.78;2.15;;;23.50;53.30;;;;;;5045007;28;20026;-68
2021/06/11 04:11:37;;;;;;;4.38;2.40;;;23.50;53.30;;;;;;5044675;28;20017;-69
2021/06/11 04:14:03;;;;;;;4.97;2.67;;;23.50;53.30;;;;;;5046797;28;20030;-69
2021/06/11 04:16:38;;;;;;;5.35;2.38;;;23.50;53.40;;;;;;5043680;28;20068;-69
2021/06/11 04:19:09;;;;;;;4.07;2.22;;;23.40;53.40;;;;;;5044224;28;20104;-68
2021/06/11 04:21:35;;;;;;;3.63;2.28;;;23.40;53.50;;;;;;5040869;28;20436;-68
2021/06/11 04:24:07;;;;;;;3.60;2.30;;;23.40;53.50;;;;;;5033485;28;20033;-68
2021/06/11 04:26:36;;;;;;;5.35;2.75;;;23.40;53.50;;;;;;5033317;28;20116;-68
2021/06/11 04:29:08;;;;;;;4.35;2.40;;;23.40;53.60;;;;;;5033251;28;20025;-68
2021/06/11 04:31:34;;;;;;;3.92;2.40;;;23.40;53.60;;;;;;5033067;28;20051;-68
2021/06/11 04:34:00;;;;;;;3.90;2.53;;;23.30;53.70;;;;;;5033293;28;20136;-68
2021/06/11 04:36:27;;;;;;;5.28;2.47;;;23.30;53.60;;;;;;5033207;28;20036;-68
2021/06/11 04:38:59;;;;;;;4.55;2.17;;;23.30;53.70;;;;;;5033147;28;20060;-68
2021/06/11 04:41:27;;;;;;;3.78;2.10;;;23.30;53.60;;;;;;5032874;28;20495;-68
2021/06/11 04:43:53;;;;;;;6.43;2.42;;;23.30;53.70;;;;;;5032716;28;20042;-68
2021/06/11 04:46:19;;;;;;;4.45;2.25;;;23.40;53.80;;;;;;5032791;28;20117;-68
2021/06/11 04:48:45;;;;;;;4.60;2.47;;;23.30;53.70;;;;;;5032702;28;20489;-68
2021/06/11 04:51:11;;;;;;;5.30;2.20;;;23.40;53.70;;;;;;5032970;28;20040;-68
2021/06/11 04:53:36;;;;;;;4.82;2.53;;;23.40;53.70;;;;;;5032747;28;20381;-68
2021/06/11 04:56:07;;;;;;;4.40;2.45;;;23.40;53.70;;;;;;5032856;28;20033;-68
2021/06/11 04:58:33;;;;;;;5.13;2.70;;;23.40;53.70;;;;;;5032685;28;20031;-68
2021/06/11 05:00:58;;;;;;;5.40;2.67;;;23.30;53.80;;;;;;5031345;28;20385;-68
2021/06/11 05:03:24;;;;;;;4.45;2.20;;;23.40;53.80;;;;;;5032669;28;20087;-67
2021/06/11 05:05:49;;;;;;;3.83;2.22;;;23.40;53.80;;;;;;5032812;28;20037;-67
2021/06/11 05:08:15;;;;;;;4.53;2.42;;;23.40;53.70;;;;;;5032687;28;20025;-68
2021/06/11 05:10:41;;;;;;;5.50;2.28;;;23.30;53.80;;;;;;5041893;28;20029;-69
2021/06/11 05:13:06;;;;;;;5.30;2.35;;;23.30;53.80;;;;;;5042597;28;20377;-68
2021/06/11 05:15:32;;;;;;;4.13;2.10;;;23.30;53.80;;;;;;5038120;28;20028;-68
2021/06/11 05:18:07;;;;;;;5.10;2.40;;;23.40;53.90;;;;;;5036852;28;20025;-67
2021/06/11 05:20:35;;;;;;;4.25;2.40;;;23.30;53.90;;;;;;5036385;28;20017;-67
2021/06/11 05:23:01;;;;;;;4.72;2.38;;;23.30;53.80;;;;;;5036314;28;20022;-67
2021/06/11 05:25:26;;;;;;;4.95;2.50;;;23.30;53.80;;;;;;5036209;28;20079;-68
2021/06/11 05:27:53;;;;;;;4.95;2.40;;;23.40;53.80;;;;;;5036293;28;20112;-67
2021/06/11 05:30:19;;;;;;;5.00;2.45;;;23.30;53.80;;;;;;5036255;28;20072;-68
2021/06/11 05:32:46;;;;;;;4.55;2.60;;;23.30;53.90;;;;;;5036173;28;20454;-68
2021/06/11 05:35:12;;;;;;;4.25;2.10;;;23.30;53.90;;;;;;5034677;28;20032;-67
2021/06/11 05:37:37;;;;;;;4.72;2.42;;;23.30;53.80;;;;;;5035902;28;20029;-68
2021/06/11 05:40:04;;;;;;;6.00;2.65;;;23.30;54.00;;;;;;5035871;28;20029;-67
2021/06/11 05:42:30;;;;;;;4.00;2.35;;;23.30;53.90;;;;;;5035733;28;20064;-68
2021/06/11 05:44:55;;;;;;;4.50;2.35;;;23.40;53.90;;;;;;5035633;28;20069;-68
2021/06/11 05:47:21;;;;;;;5.30;2.45;;;23.40;53.80;;;;;;5035668;28;20038;-67
2021/06/11 05:49:46;;;;;;;3.85;2.38;;;23.40;53.70;;;;;;5035678;28;20029;-68
2021/06/11 05:52:12;;;;;;;4.90;2.40;;;23.40;53.80;;;;;;5035798;28;20029;-68
2021/06/11 05:54:37;;;;;;;4.75;2.63;;;23.40;53.70;;;;;;5035717;28;20366;-68
2021/06/11 05:57:03;;;;;;;4.22;2.30;;;23.40;53.70;;;;;;5035352;28;20492;-68
2021/06/11 05:59:29;;;;;;;5.40;2.45;;;23.50;53.60;;;;;;5035391;28;20040;-67
2021/06/11 06:01:54;;;;;;;4.47;2.35;;;23.50;53.40;;;;;;5035430;28;20089;-68
2021/06/11 06:04:20;;;;;;;3.92;2.30;;;23.50;53.40;;;;;;5035633;28;20037;-68
2021/06/11 06:06:45;;;;;;;4.72;2.20;;;23.50;53.50;;;;;;5035367;28;20047;-68
2021/06/11 06:09:11;;;;;;;4.78;2.45;;;23.50;53.40;;;;;;5035226;28;20432;-68
2021/06/11 06:11:36;;;;;;;3.97;2.03;;;23.50;53.40;;;;;;5035176;28;20017;-68
2021/06/11 06:14:04;;;;;;;3.67;2.05;;;23.50;53.30;;;;;;5035337;28;20032;-67
2021/06/11 06:16:30;;;;;;;4.38;2.17;;;23.50;53.30;;;;;;5035307;28;20099;-67
2021/06/11 06:18:55;;;;;;;5.72;2.35;;;23.50;53.20;;;;;;5035102;28;20461;-67
2021/06/11 06:21:21;;;;;;;4.70;2.20;;;23.50;53.30;;;;;;5034443;28;20021;-68
2021/06/11 06:23:46;;;;;;;4.03;2.10;;;23.50;53.20;;;;;;5034789;28;20473;-68
2021/06/11 06:26:12;;;;;;;4.53;2.25;;;23.50;53.20;;;;;;5034834;28;20117;-68
2021/06/11 06:28:37;;;;;;;4.88;2.30;;;23.50;53.20;;;;;;5034818;28;20040;-67
2021/06/11 06:31:03;;;;;;;4.22;2.13;;;23.50;53.20;;;;;;5034622;28;20033;-68
2021/06/11 06:33:29;;;;;;;4.40;2.13;;;23.50;53.20;;;;;;5034655;28;20021;-67
2021/06/11 06:35:54;;;;;;;8.18;2.30;;;23.50;53.20;;;;;;5034579;28;20030;-67
2021/06/11 06:38:21;;;;;;;4.80;2.30;;;23.50;53.20;;;;;;5034524;28;20028;-67
2021/06/11 06:40:49;;;;;;;4.78;2.08;;;23.50;53.20;;;;;;5034554;28;20025;-67
2021/06/11 06:43:14;;;;;;;4.80;2.00;;;23.60;53.20;;;;;;5033149;28;20033;-67
2021/06/11 06:45:40;;;;;;;3.60;2.17;;;23.60;53.20;;;;;;5034648;28;20030;-67
2021/06/11 06:48:07;;;;;;;4.47;2.42;;;23.60;53.20;;;;;;5034490;28;20396;-67
2021/06/11 06:50:32;;;;;;;4.45;2.17;;;23.60;53.10;;;;;;5034690;28;20079;-68
2021/06/11 06:53:03;;;;;;;5.18;2.30;;;23.60;53.10;;;;;;5034411;28;20025;-67
2021/06/11 06:55:29;;;;;;;4.85;2.58;;;23.70;53.10;;;;;;5034324;28;20026;-68
2021/06/11 06:57:54;;;;;;;4.85;2.53;;;23.60;53.10;;;;;;5033951;28;20529;-67
2021/06/11 07:00:20;;;;;;;4.32;2.40;;;23.70;53.20;;;;;;5034338;28;20029;-69
2021/06/11 07:02:45;;;;;;;4.72;2.10;;;23.70;53.10;;;;;;5034326;28;20441;-68
2021/06/11 07:05:11;;;;;;;3.50;1.98;;;23.70;53.10;;;;;;5034604;28;20493;-67
2021/06/11 07:07:37;;;;;;;8.52;2.35;;;23.70;53.20;;;;;;5034358;28;20038;-68
2021/06/11 07:10:03;;;;;;;4.43;2.28;;;23.70;53.20;;;;;;5033925;28;20021;-68
2021/06/11 07:12:29;;;;;;;6.13;2.63;;;23.70;53.10;;;;;;5033895;28;20040;-67
2021/06/11 07:14:55;;;;;;;3.92;1.98;;;23.70;53.10;;;;;;5034574;28;20021;-68
2021/06/11 07:17:20;;;;;;;4.78;2.00;;;23.80;53.10;;;;;;5033661;28;20028;-67
2021/06/11 07:19:46;;;;;;;4.57;2.22;;;23.80;53.10;;;;;;5033913;28;20029;-67
2021/06/11 07:22:11;;;;;;;3.85;1.75;;;23.80;53.10;;;;;;5033548;28;20100;-67
2021/06/11 07:24:37;;;;;;;3.50;2.28;;;23.70;53.20;;;;;;5033619;28;20101;-67
2021/06/11 07:27:04;;;;;;;4.00;1.90;;;23.80;53.20;;;;;;5033348;28;20042;-69
2021/06/11 07:29:30;;;;;;;3.88;2.10;;;23.80;53.20;;;;;;5033622;28;20101;-68
2021/06/11 07:31:55;;;;;;;3.50;2.05;;;23.80;53.30;;;;;;5033316;28;20034;-69
2021/06/11 07:34:21;;;;;;;4.47;2.20;;;23.80;53.20;;;;;;5032588;28;20017;-67
2021/06/11 07:36:47;;;;;;;3.97;2.17;;;23.80;53.20;;;;;;5032117;28;20484;-68
2021/06/11 07:39:13;;;;;;;4.10;2.10;;;23.90;53.10;;;;;;5033423;28;20457;-68
2021/06/11 07:41:38;;;;;;;4.55;2.13;;;23.80;53.10;;;;;;5048689;28;20053;-67
2021/06/11 07:44:04;;;;;;;5.00;2.13;;;23.80;53.20;;;;;;5033286;28;20045;-67
2021/06/11 07:46:36;;;;;;;3.58;2.03;;;23.90;53.10;;;;;;5033053;28;20037;-68
2021/06/11 07:49:02;;;;;;;5.18;2.13;;;23.90;53.20;;;;;;5033372;28;20033;-68
2021/06/11 07:51:27;;;;;;;4.22;2.22;;;23.90;53.20;;;;;;5031945;28;20025;-68
2021/06/11 07:53:53;;;;;;;4.32;2.20;;;23.90;53.10;;;;;;5033087;28;20026;-68
2021/06/11 07:56:19;;;;;;;6.72;2.83;;;23.90;53.10;;;;;;5031500;28;20465;-67
2021/06/11 07:58:44;;;;;;;3.67;2.03;;;23.90;53.10;;;;;;5033057;28;20044;-67
2021/06/11 08:01:10;;;;;;;4.28;2.10;;;23.90;53.10;;;;;;5033055;28;20096;-68
2021/06/11 08:03:35;;;;;;;4.13;2.13;;;23.90;53.10;;;;;;5033094;28;20028;-68
2021/06/11 08:06:01;;;;;;;5.97;2.45;;;23.90;53.20;;;;;;5033053;28;20551;-68
2021/06/11 08:08:26;;;;;;;7.28;2.33;;;23.90;53.20;;;;;;5032697;28;20035;-68
2021/06/11 08:10:52;;;;;;;5.07;2.10;;;23.90;53.30;;;;;;5032887;28;20013;-68
2021/06/11 08:13:18;;;;;;;4.18;2.20;;;23.90;53.20;;;;;;5032837;28;20474;-68
2021/06/11 08:15:43;;;;;;;4.13;2.17;;;23.90;53.30;;;;;;5032714;28;20377;-68
2021/06/11 08:18:09;;;;;;;4.68;2.45;;;23.90;53.20;;;;;;5034654;28;20081;-67
2021/06/11 08:20:35;;;;;;;2.88;1.40;;;23.90;53.10;;;;;;5033679;28;20072;-68
2021/06/11 08:23:00;;;;;;;2.97;1.60;;;24.00;53.10;;;;;;5032129;28;20072;-68
2021/06/11 08:25:27;;;;;;;2.83;1.70;;;24.00;53.10;;;;;;5032891;28;20040;-67
2021/06/11 08:27:52;;;;;;;3.55;2.13;;;24.00;53.20;;;;;;5032820;28;20037;-67
2021/06/11 08:30:19;;;;;;;3.78;1.75;;;24.00;53.10;;;;;;5032956;28;20018;-67
2021/06/11 08:32:45;;;;;;;3.83;2.15;;;24.00;53.10;;;;;;5032777;28;20060;-67
2021/06/11 08:35:11;;;;;;;3.83;2.00;;;24.00;53.10;;;;;;5032955;28;20026;-67
2021/06/11 08:37:36;;;;;;;3.22;1.80;;;24.00;53.20;;;;;;5032770;28;20081;-68
2021/06/11 08:40:03;;;;;;;3.63;1.67;;;24.00;53.20;;;;;;5032936;28;20103;-67
2021/06/11 08:42:30;;;;;;;3.88;2.03;;;24.00;53.20;;;;;;5032891;28;20028;-67
2021/06/11 08:44:58;;;;;;;3.85;2.03;;;24.00;53.20;;;;;;5034028;28;20068;-67
2021/06/11 08:47:27;;;;;;;3.13;1.80;;;24.00;53.10;;;;;;5036806;28;20037;-67
2021/06/11 08:49:53;;;;;;;3.50;1.73;;;24.00;53.10;;;;;;5036770;28;20576;-67
2021/06/11 08:52:18;;;;;;;5.45;2.00;;;24.00;53.10;;;;;;5036564;28;20385;-67
2021/06/11 08:54:44;;;;;;;4.72;1.80;;;24.00;53.10;;;;;;5036503;28;20026;-67
2021/06/11 08:57:14;;;;;;;3.05;1.88;;;24.00;53.10;;;;;;5035180;28;20457;-67
2021/06/11 08:59:40;;;;;;;4.03;2.20;;;24.00;53.10;;;;;;5036446;28;20033;-67
2021/06/11 09:02:05;;;;;;;4.05;2.10;;;24.00;53.20;;;;;;5036365;28;20025;-67
2021/06/11 09:04:51;;;;;;;4.00;2.17;;;24.00;53.20;;;;;;5036525;28;20104;-67
2021/06/11 09:07:28;;;;;;;3.63;1.95;;;24.00;53.20;;;;;;5036080;28;20064;-67
2021/06/11 09:09:59;;;;;;;3.03;1.88;;;24.00;53.20;;;;;;5036132;28;20097;-67
2021/06/11 09:12:37;;;;;;;4.90;2.00;;;24.00;53.20;;;;;;5036253;28;20025;-67
2021/06/11 09:15:15;;;;;;;4.20;1.83;;;24.00;53.20;;;;;;5036204;28;20026;-67
2021/06/11 09:17:46;;;;;;;3.97;2.03;;;24.10;53.20;;;;;;5036127;28;20029;-67
2021/06/11 09:20:18;;;;;;;3.20;1.83;;;24.00;53.20;;;;;;5035948;28;20096;-67
2021/06/11 09:22:59;;;;;;;3.60;1.95;;;24.00;53.10;;;;;;5036329;28;20029;-67
2021/06/11 09:25:33;;;;;;;3.35;1.80;;;24.10;53.20;;;;;;5036003;28;20522;-67
2021/06/11 09:28:03;;;;;;;;;;;24.10;53.20;;;;;;5036205;28;20060;-67
2021/06/11 09:30:46;;;;;;;3.90;2.17;;;24.10;53.10;;;;;;5035814;28;19912;-67
2021/06/11 09:33:14;;;;;;;3.35;1.75;;;24.10;53.10;;;;;;5035868;28;20018;-67
2021/06/11 09:35:48;;;;;;;3.28;1.67;;;24.10;53.20;;;;;;5035812;28;20033;-67
2021/06/11 09:38:18;;;;;;;4.30;1.70;;;24.10;53.10;;;;;;5035751;28;20136;-67
2021/06/11 09:40:51;;;;;;;2.95;1.77;;;24.10;53.10;;;;;;5035557;28;20404;-67
2021/06/11 09:43:17;;;;;;;3.78;1.38;;;24.10;53.00;;;;;;5035550;28;20091;-67
2021/06/11 09:45:43;;;;;;;2.78;1.95;;;24.10;53.10;;;;;;5035255;28;20045;-67
2021/06/11 09:48:20;;;;;;;3.88;1.92;;;24.20;53.00;;;;;;5035696;28;20108;-67
2021/06/11 09:50:51;;;;;;;3.67;1.92;;;24.10;53.00;;;;;;5035674;28;20416;-67
2021/06/11 09:53:17;;;;;;;3.28;1.90;;;24.20;53.00;;;;;;5035749;28;20104;-67
2021/06/11 09:55:49;;;;;;;4.13;1.98;;;24.20;53.00;;;;;;5034944;28;20482;-67
2021/06/11 09:58:28;;;;;;;2.80;1.70;;;24.20;53.00;;;;;;5035189;28;20491;-67
2021/06/11 10:00:58;;;;;;;2.88;1.73;;;24.20;53.00;;;;;;5035589;28;20021;-67
2021/06/11 10:03:34;;;;;;;4.57;1.80;;;24.20;53.00;;;;;;5035119;28;20103;-67
2021/06/11 10:06:14;;;;;;;3.67;1.80;;;24.20;53.00;;;;;;5035074;28;20092;-67
2021/06/11 10:08:42;;;;;;;2.70;1.50;;;24.20;52.90;;;;;;5035510;28;20052;-67
2021/06/11 10:11:13;;;;;;;3.95;1.70;;;24.20;52.90;;;;;;5035386;28;20032;-67
2021/06/11 10:13:43;;;;;;;2.63;1.67;;;24.30;52.90;;;;;;5035592;28;20026;-67
2021/06/11 10:16:11;;;;;;;3.20;1.95;;;24.30;52.90;;;;;;5036394;28;20026;-68
2021/06/11 10:18:37;;;;;;;3.67;1.90;;;24.20;53.00;;;;;;5043070;28;20481;-67
2021/06/11 10:21:04;;;;;;;2.92;1.60;;;24.20;53.00;;;;;;5039123;28;20034;-67
2021/06/11 10:23:32;;;;;;;3.35;1.92;;;24.20;52.90;;;;;;5035797;28;20371;-68
2021/06/11 10:26:01;;;;;;;4.32;1.95;;;24.30;53.00;;;;;;5034640;28;20026;-68
2021/06/11 10:28:41;;;;;;;3.22;1.73;;;24.30;53.00;;;;;;5034539;28;20040;-67
2021/06/11 10:31:13;;;;;;;3.70;1.83;;;24.30;52.90;;;;;;5034818;28;20504;-68
2021/06/11 10:33:44;;;;;;;2.88;1.45;;;24.30;53.00;;;;;;5034730;28;20466;-67
2021/06/11 10:39:18;;;;;;;3.20;1.90;;;24.20;53.00;;;;;;5037675;28;20466;-67
2021/06/11 10:42:00;;;;;;;3.05;1.50;;;24.30;53.00;;;;;;5034493;28;20120;-68
2021/06/11 10:44:33;;;;;;;3.08;1.88;;;24.30;53.00;;;;;;5034630;28;20041;-68
2021/06/11 10:47:23;;;;;;;4.55;1.80;;;24.30;53.00;;;;;;5034561;28;20116;-67
2021/06/11 10:49:58;;;;;;;3.40;1.42;;;24.30;52.90;;;;;;5034383;28;20689;-67
2021/06/11 10:52:52;;;;;;;4.82;2.25;;;24.40;52.80;;;;;;5034316;28;20029;-68
2021/06/11 10:55:17;;;;;;;2.40;1.30;;;24.40;52.90;;;;;;5034239;28;20025;-67
2021/06/11 10:58:03;;;;;;;2.38;1.42;;;24.40;52.80;;;;;;5034213;28;20373;-67
2021/06/11 11:00:37;;;;;;;2.83;1.65;;;24.40;52.80;;;;;;5034019;28;20432;-67
2021/06/11 11:03:03;;;;;;;;;;;24.50;52.70;;;;;;5034579;28;20033;-68
2021/06/11 11:05:33;;;;;;;2.92;1.60;;;24.40;52.70;;;;;;5033964;28;19905;-67
2021/06/11 11:08:00;;;;;;;2.35;1.30;;;24.40;52.80;;;;;;5033804;28;20037;-67
2021/06/11 11:10:48;;;;;;;3.40;1.63;;;24.40;52.80;;;;;;5034263;28;20032;-67
2021/06/11 11:13:25;;;;;;;2.22;1.20;;;24.40;52.90;;;;;;5039664;28;20049;-67
2021/06/11 11:15:55;;;;;;;2.75;1.40;;;24.40;52.90;;;;;;5038929;28;20026;-68
2021/06/11 11:18:41;;;;;;;3.55;1.75;;;24.40;52.80;;;;;;5035695;28;20053;-67
2021/06/11 11:21:28;;;;;;;3.38;2.28;;;24.50;52.70;;;;;;5034725;28;20104;-68
2021/06/11 11:23:57;;;;;;;3.47;1.50;;;24.50;52.70;;;;;;5034214;28;20119;-67
2021/06/11 11:26:49;;;;;;;1.88;1.23;;;24.50;52.80;;;;;;5034554;28;20377;-68
2021/06/11 11:29:17;;;;;;;2.53;1.55;;;24.50;52.60;;;;;;5035505;28;20109;-68
2021/06/11 11:31:46;;;;;;;2.47;1.40;;;24.60;52.50;;;;;;5036244;28;20025;-68
2021/06/11 11:34:12;;;;;;;2.30;1.42;;;24.60;52.50;;;;;;5043104;28;20389;-68
2021/06/11 11:36:37;;;;;;;3.05;1.52;;;24.60;52.60;;;;;;5042877;28;20021;-70
2021/06/11 11:39:06;;;;;;;2.65;1.40;;;24.70;52.40;;;;;;5044652;28;20108;-69
2021/06/11 11:41:32;;;;;;;3.55;1.50;;;24.60;52.40;;;;;;5044263;28;20473;-69
2021/06/11 11:43:58;;;;;;;2.17;1.30;;;24.70;52.40;;;;;;5046564;28;20061;-68
2021/06/11 11:46:23;;;;;;;2.08;1.20;;;24.80;52.40;;;;;;5043766;28;20029;-67
2021/06/11 11:48:49;;;;;;;2.55;1.40;;;24.80;52.20;;;;;;5043614;28;20099;-68
2021/06/11 11:51:14;;;;;;;3.38;1.45;;;24.80;52.30;;;;;;5059138;28;20504;-68
2021/06/11 11:53:40;;;;;;;2.28;1.40;;;24.70;52.30;;;;;;5037156;28;20057;-67
2021/06/11 11:56:06;;;;;;;2.15;1.45;;;24.80;52.50;;;;;;5032744;28;20028;-67
2021/06/11 11:58:31;;;;;;;2.33;1.38;;;24.70;52.50;;;;;;5033882;28;20029;-67
2021/06/11 12:00:57;;;;;;;3.90;1.70;;;24.70;52.50;;;;;;5036256;28;20370;-68
2021/06/11 12:03:23;;;;;;;2.63;1.52;;;24.80;52.50;;;;;;5034826;28;20028;-67
2021/06/11 12:05:48;;;;;;;2.53;1.52;;;24.80;52.40;;;;;;5033911;28;20381;-68
2021/06/11 12:08:14;;;;;;;2.35;1.38;;;24.80;52.40;;;;;;5033962;28;20029;-66
2021/06/11 12:10:39;;;;;;;2.50;1.35;;;24.90;52.30;;;;;;5033583;28;20029;-67
2021/06/11 12:13:05;;;;;;;2.17;1.20;;;24.90;52.10;;;;;;5033333;28;20025;-68
2021/06/11 12:15:31;;;;;;;2.92;1.35;;;25.00;52.00;;;;;;5033851;28;20045;-67
2021/06/11 12:17:57;;;;;;;2.13;1.05;;;25.00;52.00;;;;;;5033054;28;20033;-67
2021/06/11 12:20:24;;;;;;;2.70;1.63;;;25.00;52.10;;;;;;5032728;28;20385;-67
2021/06/11 12:22:50;;;;;;;2.22;1.55;;;25.00;52.00;;;;;;5033037;28;20111;-67
2021/06/11 12:25:15;;;;;;;2.63;1.50;;;25.00;52.10;;;;;;5033222;28;20056;-67
2021/06/11 12:27:41;;;;;;;2.30;1.38;;;25.10;52.00;;;;;;5032886;28;20033;-67
2021/06/11 12:30:07;;;;;;;2.60;1.50;;;25.00;52.00;;;;;;5033115;28;20104;-67
2021/06/11 12:32:33;;;;;;;1.90;1.13;;;25.00;52.10;;;;;;5031847;28;20033;-67
2021/06/11 12:34:58;;;;;;;1.83;1.00;;;25.00;52.10;;;;;;5032756;28;20082;-67
2021/06/11 12:37:24;;;;;;;3.08;1.40;;;25.00;52.00;;;;;;5032806;28;20030;-67
2021/06/11 12:39:52;;;;;;;2.15;1.27;;;25.10;52.00;;;;;;5031610;28;20555;-67
2021/06/11 12:42:21;;;;;;;2.90;1.63;;;25.10;51.80;;;;;;5032732;28;20103;-68
2021/06/11 12:44:47;;;;;;;2.85;1.33;;;25.20;51.70;;;;;;5032616;28;20381;-67
2021/06/11 12:47:13;;;;;;;2.08;1.20;;;25.30;51.60;;;;;;5032538;28;20045;-67
2021/06/11 12:49:40;;;;;;;1.27;1.05;;;25.30;51.60;;;;;;5036449;28;20478;-67
2021/06/11 12:52:06;;;;;;;2.50;1.42;;;25.40;51.50;;;;;;5035126;28;20053;-67
2021/06/11 12:54:32;;;;;;;2.83;1.40;;;25.40;51.50;;;;;;5033576;28;20496;-67
2021/06/11 12:56:58;;;;;;;2.28;1.27;;;25.50;51.30;;;;;;5039116;28;20034;-67